createdAt,value
2019-05-01T00:00:27.066Z,81.95
2019-05-01T00:01:27.084Z,81.64
2019-05-01T00:02:27.103Z,81.43
2019-05-01T00:03:27.062Z,81.43
2019-05-01T00:04:27.016Z,82.05
2019-05-01T00:05:27.031Z,82.46
2019-05-01T00:06:26.994Z,83.18
2019-05-01T00:07:26.989Z,83.18
2019-05-01T00:08:27.025Z,82.91
2019-05-01T00:09:26.964Z,82.87
2019-05-01T00:10:26.973Z,83.22
2019-05-01T00:11:26.953Z,82.19
2019-05-01T00:12:26.935Z,82.67
2019-05-01T00:13:26.940Z,82.97
2019-05-01T00:14:26.918Z,82.36
2019-05-01T00:15:26.973Z,82.15
2019-05-01T00:16:26.896Z,82.77
2019-05-01T00:17:27.896Z,83.53
2019-05-01T00:18:26.893Z,83.22
2019-05-01T00:19:26.855Z,83.01
2019-05-01T00:20:26.844Z,82.09
2019-05-01T00:21:26.852Z,82.70
2019-05-01T00:22:26.829Z,83.12
2019-05-01T00:23:26.915Z,82.29
2019-05-01T00:24:34.541Z,82.81
2019-05-01T00:25:26.876Z,83.42
2019-05-01T00:26:34.450Z,84.18
2019-05-01T00:27:35.726Z,84.18
2019-05-01T00:28:26.933Z,83.46
2019-05-01T00:30:42.580Z,84.08
2019-05-01T00:31:42.508Z,84.39
2019-05-01T00:32:51.407Z,84.08
2019-05-01T00:33:42.499Z,84.28
2019-05-01T00:34:50.225Z,83.77
2019-05-01T00:35:42.454Z,84.80
2019-05-01T00:36:51.737Z,84.90
2019-05-01T00:37:42.420Z,84.39
2019-05-01T00:38:50.019Z,82.75
2019-05-01T00:39:42.453Z,84.69
2019-05-01T00:40:51.306Z,85.21
2019-05-01T00:41:42.395Z,84.80
2019-05-01T00:42:50.055Z,84.22
2019-05-01T00:43:42.386Z,84.90
2019-05-01T00:44:50.068Z,85.55
2019-05-01T00:45:42.348Z,85.86
2019-05-01T00:46:51.267Z,85.86
2019-05-01T00:47:42.379Z,86.38
2019-05-01T00:49:52.215Z,85.46
2019-05-01T00:50:52.039Z,85.14
2019-05-01T00:52:00.956Z,85.76
2019-05-01T00:52:52.031Z,83.29
2019-05-01T00:53:52.006Z,84.84
2019-05-01T00:55:00.646Z,81.76
2019-05-01T00:55:52.023Z,83.77
2019-05-01T00:57:00.687Z,83.36
2019-05-01T00:57:51.971Z,83.15
2019-05-01T00:59:00.570Z,82.81
2019-05-01T00:59:51.982Z,83.67
2019-05-01T01:00:52.016Z,83.46
2019-05-01T01:01:51.933Z,82.84
2019-05-01T01:02:51.921Z,82.64
2019-05-01T01:03:51.925Z,83.15
2019-05-01T01:04:51.930Z,82.95
2019-05-01T01:05:51.940Z,82.84
2019-05-01T01:06:51.866Z,82.84
2019-05-01T01:07:51.858Z,83.19
2019-05-01T01:08:51.842Z,83.19
2019-05-01T01:09:51.840Z,82.57
2019-05-01T01:10:51.834Z,83.19
2019-05-01T01:11:51.831Z,83.29
2019-05-01T01:12:51.819Z,83.67
2019-05-01T01:14:00.425Z,83.40
2019-05-01T01:14:51.778Z,82.89
2019-05-01T01:15:51.768Z,82.99
2019-05-01T01:16:51.794Z,82.47
2019-05-01T01:17:51.741Z,83.19
2019-05-01T01:18:51.735Z,83.09
2019-05-01T01:19:51.721Z,82.47
2019-05-01T01:20:51.727Z,82.27
2019-05-01T01:21:51.704Z,81.96
2019-05-01T01:22:51.713Z,81.96
2019-05-01T01:23:51.715Z,81.55
2019-05-01T01:24:51.664Z,81.76
2019-05-01T01:25:51.659Z,82.27
2019-05-01T01:26:51.652Z,82.06
2019-05-01T01:27:51.662Z,82.06
2019-05-01T01:28:59.179Z,82.27
2019-05-01T01:29:51.617Z,83.29
2019-05-01T01:31:00.155Z,83.09
2019-05-01T01:31:51.593Z,83.40
2019-05-01T01:32:51.622Z,82.92
2019-05-01T01:33:51.574Z,83.44
2019-05-01T01:34:51.565Z,83.64
2019-05-01T01:35:51.555Z,83.61
2019-05-01T01:36:51.541Z,83.03
2019-05-01T01:37:51.532Z,83.23
2019-05-01T01:38:51.538Z,83.44
2019-05-01T01:39:51.513Z,83.44
2019-05-01T01:40:51.505Z,83.44
2019-05-01T01:41:51.501Z,83.54
2019-05-01T01:42:51.494Z,83.33
2019-05-01T01:43:51.486Z,83.23
2019-05-01T01:44:51.461Z,83.23
2019-05-01T01:45:51.444Z,82.31
2019-05-01T01:46:51.433Z,83.13
2019-05-01T01:47:51.429Z,83.13
2019-05-01T01:48:51.458Z,83.03
2019-05-01T01:49:51.409Z,83.13
2019-05-01T01:50:51.395Z,83.54
2019-05-01T01:51:51.379Z,82.92
2019-05-01T01:52:51.373Z,83.44
2019-05-01T01:53:51.354Z,83.13
2019-05-01T01:54:51.369Z,84.09
2019-05-01T01:55:51.334Z,83.99
2019-05-01T01:56:51.329Z,84.71
2019-05-01T01:57:51.315Z,85.02
2019-05-01T01:58:51.303Z,85.53
2019-05-01T01:59:51.304Z,84.91
2019-05-01T02:00:51.312Z,84.61
2019-05-01T02:01:51.280Z,85.02
2019-05-01T02:02:51.260Z,85.12
2019-05-01T02:03:51.254Z,85.02
2019-05-01T02:04:51.250Z,85.22
2019-05-01T02:05:51.258Z,86.46
2019-05-01T02:06:51.221Z,86.15
2019-05-01T02:07:51.208Z,85.94
2019-05-01T02:08:56.627Z,86.08
2019-05-01T02:09:52.180Z,85.94
2019-05-01T02:10:51.185Z,84.91
2019-05-01T02:11:51.185Z,85.22
2019-05-01T02:12:51.152Z,85.74
2019-05-01T02:13:51.143Z,85.33
2019-05-01T02:14:51.124Z,85.22
2019-05-01T02:15:51.120Z,85.53
2019-05-01T02:16:51.130Z,85.84
2019-05-01T02:17:51.101Z,85.57
2019-05-01T02:18:51.088Z,85.88
2019-05-01T02:19:51.081Z,85.47
2019-05-01T02:20:51.070Z,84.95
2019-05-01T02:21:51.085Z,84.95
2019-05-01T02:22:51.051Z,85.57
2019-05-01T02:23:51.043Z,85.22
2019-05-01T02:24:51.047Z,85.57
2019-05-01T02:25:51.042Z,85.16
2019-05-01T02:26:51.004Z,85.36
2019-05-01T02:27:51.021Z,85.26
2019-05-01T02:28:50.980Z,85.47
2019-05-01T02:29:50.974Z,85.36
2019-05-01T02:30:50.960Z,85.57
2019-05-01T02:31:50.953Z,85.98
2019-05-01T02:32:51.030Z,85.68
2019-05-01T02:33:58.590Z,85.57
2019-05-01T02:34:50.924Z,85.36
2019-05-01T02:35:58.634Z,85.57
2019-05-01T02:36:50.959Z,85.98
2019-05-01T02:37:58.858Z,85.88
2019-05-01T02:38:50.890Z,86.23
2019-05-01T02:39:58.515Z,86.02
2019-05-01T02:40:50.870Z,85.61
2019-05-01T02:41:58.487Z,86.23
2019-05-01T02:42:50.937Z,86.02
2019-05-01T02:43:59.963Z,85.92
2019-05-01T02:44:50.869Z,86.13
2019-05-01T02:47:00.649Z,85.82
2019-05-01T02:48:08.198Z,86.74
2019-05-01T02:49:00.615Z,87.36
2019-05-01T02:51:10.490Z,86.64
2019-05-01T02:52:17.898Z,86.74
2019-05-01T02:53:10.308Z,86.54
2019-05-01T02:55:21.113Z,86.02
2019-05-01T02:56:21.040Z,85.82
2019-05-01T02:57:28.621Z,86.27
2019-05-01T02:58:21.088Z,85.51
2019-05-01T03:00:39.738Z,85.30
2019-05-01T03:02:50.484Z,85.82
2019-05-01T03:03:50.452Z,85.44
2019-05-01T03:04:58.065Z,85.14
2019-05-01T03:05:50.426Z,84.99
2019-05-01T03:06:59.450Z,85.30
2019-05-01T03:07:50.443Z,85.34
2019-05-01T03:08:50.379Z,84.79
2019-05-01T03:09:50.331Z,85.20
2019-05-01T03:10:50.318Z,84.89
2019-05-01T03:11:50.309Z,84.89
2019-05-01T03:12:50.321Z,85.10
2019-05-01T03:13:50.324Z,84.72
2019-05-01T03:14:50.319Z,84.69
2019-05-01T03:15:57.964Z,84.62
2019-05-01T03:16:50.345Z,85.14
2019-05-01T03:17:50.266Z,84.93
2019-05-01T03:18:59.000Z,85.24
2019-05-01T03:19:50.231Z,85.44
2019-05-01T03:20:58.836Z,85.24
2019-05-01T03:21:50.225Z,85.75
2019-05-01T03:23:00.441Z,85.75
2019-05-01T03:23:50.216Z,86.06
2019-05-01T03:24:58.837Z,87.03
2019-05-01T03:25:50.167Z,86.79
2019-05-01T03:28:10.316Z,87.44
2019-05-01T03:29:19.094Z,87.03
2019-05-01T03:30:10.065Z,87.24
2019-05-01T03:31:19.000Z,87.24
2019-05-01T03:32:17.973Z,87.03
2019-05-01T03:34:32.894Z,88.06
2019-05-01T03:35:40.318Z,87.13
2019-05-01T03:36:32.670Z,87.03
2019-05-01T03:37:40.299Z,86.82
2019-05-01T03:38:32.634Z,87.13
2019-05-01T03:40:50.099Z,87.34
2019-05-01T03:43:00.787Z,87.96
2019-05-01T03:44:08.377Z,87.34
2019-05-01T03:45:00.736Z,86.82
2019-05-01T03:46:09.292Z,87.17
2019-05-01T03:47:00.674Z,87.69
2019-05-01T03:48:10.554Z,87.54
2019-05-01T03:49:00.679Z,87.07
2019-05-01T03:51:12.770Z,86.72
2019-05-01T03:52:21.371Z,86.76
2019-05-01T03:53:12.680Z,86.61
2019-05-01T03:54:20.325Z,86.87
2019-05-01T03:55:12.743Z,86.82
2019-05-01T03:56:21.546Z,86.72
2019-05-01T03:57:12.926Z,87.24
2019-05-01T03:58:20.277Z,86.93
2019-05-01T03:59:12.687Z,87.03
2019-05-01T04:00:20.301Z,85.69
2019-05-01T04:01:12.650Z,85.79
2019-05-01T04:02:33.018Z,86.21
2019-05-01T04:03:13.581Z,86.10
2019-05-01T04:04:20.278Z,86.00
2019-05-01T04:05:12.578Z,85.49
2019-05-01T04:06:12.590Z,85.79
2019-05-01T04:07:21.215Z,86.10
2019-05-01T04:08:12.533Z,85.69
2019-05-01T04:09:20.245Z,86.82
2019-05-01T04:10:12.542Z,86.52
2019-05-01T04:11:20.171Z,87.24
2019-05-01T04:12:12.518Z,87.59
2019-05-01T04:13:20.475Z,87.75
2019-05-01T04:14:12.483Z,87.54
2019-05-01T04:15:21.066Z,87.85
2019-05-01T04:16:12.455Z,87.65
2019-05-01T04:17:12.455Z,88.06
2019-05-01T04:18:12.414Z,89.19
2019-05-01T04:19:12.420Z,89.61
2019-05-01T04:20:12.397Z,88.89
2019-05-01T04:21:12.385Z,88.78
2019-05-01T04:22:12.387Z,89.50
2019-05-01T04:23:12.373Z,90.01
2019-05-01T04:24:12.405Z,89.61
2019-05-01T04:25:12.351Z,90.59
2019-05-01T04:26:12.334Z,90.43
2019-05-01T04:27:12.462Z,90.39
2019-05-01T04:28:12.345Z,91.00
2019-05-01T04:29:12.439Z,91.31
2019-05-01T04:30:12.330Z,91.62
2019-05-01T04:31:12.340Z,90.80
2019-05-01T04:32:12.445Z,90.49
2019-05-01T04:33:12.305Z,91.83
2019-05-01T04:34:12.265Z,91.11
2019-05-01T04:35:12.371Z,91.42
2019-05-01T04:36:12.298Z,91.42
2019-05-01T04:37:12.366Z,91.31
2019-05-01T04:38:12.315Z,91.62
2019-05-01T04:39:12.219Z,91.52
2019-05-01T04:40:12.336Z,90.69
2019-05-01T04:41:12.200Z,91.93
2019-05-01T04:42:12.266Z,91.72
2019-05-01T04:43:12.261Z,91.72
2019-05-01T04:44:12.167Z,91.83
2019-05-01T04:45:12.243Z,90.55
2019-05-01T04:46:12.232Z,90.34
2019-05-01T04:47:12.227Z,90.49
2019-05-01T04:48:12.106Z,90.55
2019-05-01T04:49:12.158Z,92.30
2019-05-01T04:50:12.178Z,93.23
2019-05-01T04:51:12.109Z,93.27
2019-05-01T04:52:12.113Z,92.92
2019-05-01T04:53:12.142Z,93.95
2019-05-01T04:54:12.086Z,94.98
2019-05-01T04:55:12.160Z,93.79
2019-05-01T04:56:12.035Z,94.46
2019-05-01T04:57:12.028Z,93.33
2019-05-01T04:58:12.021Z,92.71
2019-05-01T04:59:12.077Z,92.40
2019-05-01T05:00:12.116Z,92.71
2019-05-01T05:01:12.037Z,93.54
2019-05-01T05:02:11.987Z,90.75
2019-05-01T05:03:12.049Z,92.61
2019-05-01T05:04:12.021Z,93.33
2019-05-01T05:05:11.997Z,93.39
2019-05-01T05:06:11.977Z,92.77
2019-05-01T05:07:11.958Z,93.02
2019-05-01T05:08:11.918Z,93.33
2019-05-01T05:09:11.924Z,93.33
2019-05-01T05:10:11.902Z,92.46
2019-05-01T05:11:11.974Z,92.77
2019-05-01T05:12:12.019Z,92.87
2019-05-01T05:13:11.997Z,90.41
2019-05-01T05:14:11.910Z,91.64
2019-05-01T05:15:11.931Z,90.51
2019-05-01T05:16:11.879Z,92.57
2019-05-01T05:17:11.944Z,93.29
2019-05-01T05:18:11.800Z,93.59
2019-05-01T05:19:11.822Z,93.18
2019-05-01T05:20:11.931Z,93.29
2019-05-01T05:21:11.807Z,93.29
2019-05-01T05:22:11.893Z,93.29
2019-05-01T05:23:11.777Z,93.49
2019-05-01T05:24:11.732Z,93.49
2019-05-01T05:25:11.802Z,93.90
2019-05-01T05:26:11.804Z,94.01
2019-05-01T05:27:11.701Z,94.52
2019-05-01T05:28:11.890Z,93.44
2019-05-01T05:29:11.760Z,93.49
2019-05-01T05:30:11.663Z,94.58
2019-05-01T05:31:11.758Z,94.31
2019-05-01T05:32:11.683Z,94.68
2019-05-01T05:33:18.165Z,93.49
2019-05-01T05:34:12.766Z,92.67
2019-05-01T05:35:11.634Z,93.24
2019-05-01T05:36:11.615Z,94.01
2019-05-01T05:37:11.641Z,93.96
2019-05-01T05:38:11.646Z,91.70
2019-05-01T05:39:11.727Z,93.44
2019-05-01T05:40:11.587Z,93.35
2019-05-01T05:41:11.615Z,93.04
2019-05-01T05:42:11.570Z,92.73
2019-05-01T05:43:11.522Z,93.35
2019-05-01T05:44:11.628Z,92.32
2019-05-01T05:45:11.551Z,93.04
2019-05-01T05:46:11.695Z,93.44
2019-05-01T05:47:21.165Z,91.60
2019-05-01T05:48:11.469Z,90.88
2019-05-01T05:49:11.511Z,93.14
2019-05-01T05:50:11.513Z,92.83
2019-05-01T05:51:11.472Z,92.63
2019-05-01T05:52:11.435Z,92.63
2019-05-01T05:53:11.471Z,92.83
2019-05-01T05:54:11.449Z,92.93
2019-05-01T05:55:11.395Z,93.35
2019-05-01T05:56:11.474Z,93.61
2019-05-01T05:57:11.414Z,93.82
2019-05-01T05:58:11.394Z,93.92
2019-05-01T05:59:11.411Z,93.76
2019-05-01T06:00:11.356Z,94.23
2019-05-01T06:01:11.343Z,93.20
2019-05-01T06:02:11.373Z,93.86
2019-05-01T06:03:11.328Z,94.07
2019-05-01T06:04:11.402Z,93.96
2019-05-01T06:05:11.466Z,93.51
2019-05-01T06:06:11.303Z,93.55
2019-05-01T06:07:11.365Z,93.82
2019-05-01T06:08:11.368Z,94.33
2019-05-01T06:09:14.034Z,93.30
2019-05-01T06:10:11.384Z,93.86
2019-05-01T06:11:11.322Z,93.82
2019-05-01T06:12:11.263Z,93.86
2019-05-01T06:13:11.295Z,94.27
2019-05-01T06:14:11.230Z,94.54
2019-05-01T06:15:11.241Z,94.48
2019-05-01T06:16:27.214Z,92.83
2019-05-01T06:17:11.210Z,93.86
2019-05-01T06:18:11.238Z,93.96
2019-05-01T06:19:14.601Z,91.14
2019-05-01T06:20:12.145Z,91.76
2019-05-01T06:21:12.924Z,87.85
2019-05-01T06:22:11.674Z,89.19
2019-05-01T06:23:11.076Z,90.73
2019-05-01T06:24:11.081Z,90.89
2019-05-01T06:25:21.569Z,90.32
2019-05-01T06:26:12.057Z,88.78
2019-05-01T06:27:13.671Z,90.38
2019-05-01T06:28:24.630Z,91.61
2019-05-01T06:29:12.045Z,92.54
2019-05-01T06:30:18.584Z,92.03
2019-05-01T06:31:11.009Z,91.20
2019-05-01T06:32:18.555Z,90.80
2019-05-01T06:33:11.308Z,90.28
2019-05-01T06:34:10.977Z,90.73
2019-05-01T06:35:10.983Z,91.51
2019-05-01T06:36:13.274Z,91.93
2019-05-01T06:37:10.936Z,91.72
2019-05-01T06:38:10.928Z,91.82
2019-05-01T06:39:11.989Z,91.82
2019-05-01T06:40:10.904Z,92.44
2019-05-01T06:41:10.932Z,92.95
2019-05-01T06:42:15.233Z,93.05
2019-05-01T06:43:11.886Z,93.36
2019-05-01T06:44:10.861Z,92.95
2019-05-01T06:45:13.042Z,93.16
2019-05-01T06:46:11.863Z,93.26
2019-05-01T06:47:10.834Z,93.30
2019-05-01T06:48:14.190Z,92.44
2019-05-01T06:49:11.810Z,93.36
2019-05-01T06:50:10.794Z,93.82
2019-05-01T06:51:13.046Z,93.82
2019-05-01T06:52:11.803Z,90.12
2019-05-01T06:53:10.770Z,87.40
2019-05-01T06:54:16.123Z,91.10
2019-05-01T06:55:11.745Z,92.13
2019-05-01T06:56:10.775Z,92.33
2019-05-01T06:57:10.728Z,93.05
2019-05-01T06:58:14.795Z,92.44
2019-05-01T06:59:11.710Z,91.51
2019-05-01T07:00:10.695Z,92.95
2019-05-01T07:01:13.839Z,92.44
2019-05-01T07:02:11.673Z,92.95
2019-05-01T07:03:11.664Z,93.16
2019-05-01T07:04:10.666Z,92.74
2019-05-01T07:05:14.699Z,93.16
2019-05-01T07:06:14.354Z,93.20
2019-05-01T07:07:24.669Z,93.16
2019-05-01T07:08:23.968Z,93.36
2019-05-01T07:09:12.201Z,93.46
2019-05-01T07:10:10.586Z,92.85
2019-05-01T07:11:10.944Z,93.26
2019-05-01T07:12:10.567Z,91.61
2019-05-01T07:13:19.184Z,91.51
2019-05-01T07:14:11.217Z,91.61
2019-05-01T07:15:11.528Z,92.23
2019-05-01T07:16:10.551Z,92.95
2019-05-01T07:17:13.572Z,92.33
2019-05-01T07:18:11.580Z,92.85
2019-05-01T07:19:10.505Z,92.54
2019-05-01T07:20:11.910Z,91.51
2019-05-01T07:21:11.487Z,91.61
2019-05-01T07:22:10.489Z,92.33
2019-05-01T07:23:12.689Z,91.72
2019-05-01T07:24:11.437Z,91.41
2019-05-01T07:25:10.426Z,91.72
2019-05-01T07:26:13.739Z,92.33
2019-05-01T07:27:10.407Z,92.13
2019-05-01T07:28:10.422Z,92.44
2019-05-01T07:29:11.077Z,92.85
2019-05-01T07:30:10.372Z,93.36
2019-05-01T07:31:10.369Z,92.54
2019-05-01T07:32:10.363Z,91.82
2019-05-01T07:33:12.018Z,91.06
2019-05-01T07:34:16.673Z,91.51
2019-05-01T07:35:11.319Z,91.57
2019-05-01T07:36:15.396Z,91.47
2019-05-01T07:37:11.303Z,92.08
2019-05-01T07:38:10.284Z,90.65
2019-05-01T07:39:14.759Z,91.47
2019-05-01T07:40:11.273Z,91.67
2019-05-01T07:41:12.371Z,90.55
2019-05-01T07:42:12.386Z,90.14
2019-05-01T07:43:10.233Z,91.47
2019-05-01T07:44:10.252Z,92.08
2019-05-01T07:45:10.219Z,92.50
2019-05-01T07:46:13.707Z,92.19
2019-05-01T07:47:11.200Z,93.01
2019-05-01T07:48:10.184Z,92.80
2019-05-01T07:49:12.984Z,92.40
2019-05-01T07:50:11.162Z,91.57
2019-05-01T07:51:10.226Z,90.75
2019-05-01T07:52:12.576Z,87.37
2019-05-01T07:53:11.140Z,89.72
2019-05-01T07:54:10.140Z,91.47
2019-05-01T07:55:13.026Z,91.57
2019-05-01T07:56:11.099Z,90.81
2019-05-01T07:57:10.082Z,91.06
2019-05-01T07:58:15.226Z,91.22
2019-05-01T07:59:11.125Z,91.57
2019-05-01T08:00:10.101Z,91.57
2019-05-01T08:01:13.072Z,92.19
2019-05-01T08:02:11.034Z,92.60
2019-05-01T08:03:10.045Z,92.91
2019-05-01T08:04:13.877Z,92.40
2019-05-01T08:05:11.759Z,92.50
2019-05-01T08:06:21.440Z,93.07
2019-05-01T08:07:10.980Z,92.55
2019-05-01T08:08:09.994Z,91.94
2019-05-01T08:09:11.329Z,91.67
2019-05-01T08:10:10.967Z,91.37
2019-05-01T08:11:10.374Z,91.67
2019-05-01T08:12:09.925Z,91.47
2019-05-01T08:13:09.914Z,87.88
2019-05-01T08:14:11.941Z,89.72
2019-05-01T08:15:10.915Z,90.30
2019-05-01T08:16:09.882Z,91.94
2019-05-01T08:17:12.812Z,91.94
2019-05-01T08:18:10.860Z,91.94
2019-05-01T08:19:09.853Z,91.16
2019-05-01T08:20:14.697Z,91.12
2019-05-01T08:21:10.826Z,90.81
2019-05-01T08:22:09.817Z,91.42
2019-05-01T08:23:12.154Z,90.91
2019-05-01T08:24:09.798Z,90.91
2019-05-01T08:25:09.787Z,91.42
2019-05-01T08:26:10.314Z,90.71
2019-05-01T08:27:09.764Z,90.30
2019-05-01T08:28:09.752Z,91.33
2019-05-01T08:29:09.746Z,90.91
2019-05-01T08:30:12.864Z,91.12
2019-05-01T08:31:11.367Z,90.61
2019-05-01T08:32:09.715Z,90.20
2019-05-01T08:33:14.162Z,90.36
2019-05-01T08:34:10.689Z,91.49
2019-05-01T08:35:09.680Z,90.87
2019-05-01T08:36:11.683Z,91.28
2019-05-01T08:37:09.679Z,91.22
2019-05-01T08:38:09.647Z,90.77
2019-05-01T08:39:10.810Z,91.59
2019-05-01T08:40:09.637Z,90.16
2019-05-01T08:41:09.617Z,89.48
2019-05-01T08:42:09.627Z,89.99
2019-05-01T08:43:09.593Z,88.96
2019-05-01T08:44:09.585Z,89.43
2019-05-01T08:45:09.579Z,87.90
2019-05-01T08:46:11.900Z,89.33
2019-05-01T08:47:10.578Z,89.64
2019-05-01T08:48:09.543Z,90.36
2019-05-01T08:49:11.442Z,89.81
2019-05-01T08:50:09.520Z,89.33
2019-05-01T08:51:09.576Z,89.23
2019-05-01T08:52:12.922Z,89.03
2019-05-01T08:53:09.675Z,89.33
2019-05-01T08:54:09.500Z,89.84
2019-05-01T08:55:10.848Z,90.77
2019-05-01T08:56:09.838Z,90.56
2019-05-01T08:57:09.448Z,88.41
2019-05-01T08:58:13.922Z,86.46
2019-05-01T08:59:09.424Z,84.52
2019-05-01T09:00:09.415Z,88.31
2019-05-01T09:01:10.887Z,89.33
2019-05-01T09:02:10.433Z,89.23
2019-05-01T09:03:13.595Z,86.66
2019-05-01T09:04:13.023Z,83.45
2019-05-01T09:05:27.544Z,80.88
2019-05-01T09:06:10.426Z,79.35
2019-05-01T09:07:09.344Z,87.14
2019-05-01T09:08:09.375Z,89.39
2019-05-01T09:09:10.323Z,88.37
2019-05-01T09:10:09.425Z,89.15
2019-05-01T09:11:09.825Z,86.63
2019-05-01T09:12:11.737Z,89.60
2019-05-01T09:13:09.302Z,89.19
2019-05-01T09:14:09.274Z,89.29
2019-05-01T09:15:12.681Z,88.82
2019-05-01T09:16:10.248Z,89.19
2019-05-01T09:17:09.240Z,89.60
2019-05-01T09:18:09.247Z,89.19
2019-05-01T09:19:09.218Z,88.57
2019-05-01T09:20:09.209Z,88.88
2019-05-01T09:21:09.191Z,88.98
2019-05-01T09:22:09.180Z,88.78
2019-05-01T09:23:09.427Z,87.96
2019-05-01T09:24:09.163Z,88.17
2019-05-01T09:25:09.149Z,87.14
2019-05-01T09:26:14.794Z,87.20
2019-05-01T09:27:10.130Z,87.51
2019-05-01T09:28:09.138Z,86.58
2019-05-01T09:29:11.075Z,87.76
2019-05-01T09:30:10.099Z,88.57
2019-05-01T09:31:09.083Z,88.74
2019-05-01T09:32:10.278Z,87.76
2019-05-01T09:33:09.086Z,87.61
2019-05-01T09:34:09.569Z,87.85
2019-05-01T09:35:15.558Z,88.27
2019-05-01T09:36:10.032Z,88.23
2019-05-01T09:37:09.030Z,88.37
2019-05-01T09:38:09.036Z,88.27
2019-05-01T09:39:09.006Z,88.27
2019-05-01T09:40:10.292Z,88.74
2019-05-01T09:41:08.982Z,86.42
2019-05-01T09:42:08.975Z,88.57
2019-05-01T09:43:08.975Z,89.56
2019-05-01T09:44:10.694Z,89.25
2019-05-01T09:45:08.938Z,87.10
2019-05-01T09:46:08.929Z,86.38
2019-05-01T09:47:08.914Z,87.71
2019-05-01T09:48:08.905Z,88.49
2019-05-01T09:49:08.912Z,89.25
2019-05-01T09:50:08.899Z,84.80
2019-05-01T09:51:08.872Z,86.55
2019-05-01T09:52:08.867Z,86.44
2019-05-01T09:53:08.864Z,86.44
2019-05-01T09:54:09.824Z,86.24
2019-05-01T09:55:08.831Z,86.44
2019-05-01T09:56:09.163Z,86.44
2019-05-01T09:57:08.817Z,83.17
2019-05-01T09:58:08.801Z,84.91
2019-05-01T09:59:12.597Z,85.22
2019-05-01T10:00:09.777Z,86.34
2019-05-01T10:01:08.766Z,86.44
2019-05-01T10:02:09.151Z,86.44
2019-05-01T10:03:13.192Z,86.24
2019-05-01T10:04:09.759Z,86.55
2019-05-01T10:05:08.726Z,87.47
2019-05-01T10:06:08.713Z,87.06
2019-05-01T10:07:08.705Z,83.06
2019-05-01T10:08:09.343Z,85.52
2019-05-01T10:09:11.990Z,87.26
2019-05-01T10:10:09.672Z,87.67
2019-05-01T10:11:08.665Z,85.52
2019-05-01T10:12:11.622Z,86.85
2019-05-01T10:13:08.639Z,86.14
2019-05-01T10:14:08.654Z,86.91
2019-05-01T10:15:08.622Z,86.91
2019-05-01T10:16:08.613Z,86.91
2019-05-01T10:17:08.595Z,87.12
2019-05-01T10:18:08.588Z,87.12
2019-05-01T10:19:08.577Z,86.91
2019-05-01T10:20:08.609Z,87.12
2019-05-01T10:21:08.558Z,86.61
2019-05-01T10:22:08.552Z,86.30
2019-05-01T10:23:13.043Z,86.61
2019-05-01T10:24:09.521Z,84.42
2019-05-01T10:25:12.263Z,83.09
2019-05-01T10:26:08.504Z,85.24
2019-05-01T10:27:08.493Z,86.26
2019-05-01T10:28:12.713Z,86.77
2019-05-01T10:29:09.475Z,84.87
2019-05-01T10:30:08.481Z,86.30
2019-05-01T10:31:11.957Z,83.50
2019-05-01T10:32:08.439Z,86.26
2019-05-01T10:33:08.430Z,86.26
2019-05-01T10:34:09.161Z,86.36
2019-05-01T10:35:08.446Z,85.96
2019-05-01T10:36:12.829Z,86.26
2019-05-01T10:37:09.385Z,84.22
2019-05-01T10:38:09.340Z,86.57
2019-05-01T10:39:08.374Z,86.26
2019-05-01T10:40:08.365Z,84.93
2019-05-01T10:41:09.262Z,84.31
2019-05-01T10:42:08.336Z,85.44
2019-05-01T10:43:08.325Z,85.34
2019-05-01T10:44:08.323Z,84.11
2019-05-01T10:45:08.311Z,82.89
2019-05-01T10:46:08.316Z,84.52
2019-05-01T10:47:08.289Z,84.28
2019-05-01T10:48:08.282Z,84.79
2019-05-01T10:49:08.257Z,82.84
2019-05-01T10:50:08.257Z,81.93
2019-05-01T10:51:08.268Z,82.54
2019-05-01T10:52:14.215Z,83.15
2019-05-01T10:53:09.296Z,84.58
2019-05-01T10:54:08.221Z,84.63
2019-05-01T10:55:08.217Z,84.22
2019-05-01T10:56:08.200Z,81.65
2019-05-01T10:57:08.183Z,84.48
2019-05-01T10:58:12.758Z,84.79
2019-05-01T10:59:09.152Z,84.79
2019-05-01T11:00:08.142Z,84.48
2019-05-01T11:01:08.162Z,84.89
2019-05-01T11:02:08.124Z,85.50
2019-05-01T11:03:08.124Z,86.32
2019-05-01T11:04:08.100Z,84.89
2019-05-01T11:05:08.098Z,81.27
2019-05-01T11:06:08.098Z,77.08
2019-05-01T11:07:08.078Z,81.38
2019-05-01T11:08:08.063Z,84.55
2019-05-01T11:09:08.049Z,84.03
2019-05-01T11:10:08.035Z,85.57
2019-05-01T11:11:08.044Z,81.38
2019-05-01T11:12:08.018Z,81.38
2019-05-01T11:13:08.055Z,76.98
2019-05-01T11:14:08.032Z,79.70
2019-05-01T11:15:08.224Z,82.46
2019-05-01T11:16:08.008Z,82.87
2019-05-01T11:17:07.974Z,82.36
2019-05-01T11:18:07.958Z,82.05
2019-05-01T11:19:07.938Z,81.85
2019-05-01T11:20:07.935Z,82.56
2019-05-01T11:21:07.964Z,82.50
2019-05-01T11:22:07.912Z,82.56
2019-05-01T11:23:07.901Z,82.15
2019-05-01T11:24:07.905Z,82.40
2019-05-01T11:25:07.878Z,83.42
2019-05-01T11:26:07.905Z,84.24
2019-05-01T11:27:07.878Z,83.73
2019-05-01T11:28:07.876Z,85.36
2019-05-01T11:29:07.859Z,85.12
2019-05-01T11:30:07.835Z,84.41
2019-05-01T11:31:07.835Z,83.18
2019-05-01T11:32:07.807Z,84.20
2019-05-01T11:33:07.788Z,84.00
2019-05-01T11:34:07.809Z,83.79
2019-05-01T11:35:07.840Z,82.56
2019-05-01T11:36:09.782Z,83.28
2019-05-01T11:37:07.787Z,82.77
2019-05-01T11:38:07.748Z,82.77
2019-05-01T11:39:07.791Z,82.97
2019-05-01T11:40:07.722Z,83.18
2019-05-01T11:41:07.725Z,82.56
2019-05-01T11:42:07.700Z,82.77
2019-05-01T11:43:07.683Z,83.11
2019-05-01T11:44:07.675Z,83.11
2019-05-01T11:45:07.669Z,82.60
2019-05-01T11:46:07.663Z,83.01
2019-05-01T11:47:07.664Z,82.87
2019-05-01T11:48:07.628Z,84.09
2019-05-01T11:49:07.617Z,84.41
2019-05-01T11:50:07.607Z,84.47
2019-05-01T11:51:07.606Z,83.48
2019-05-01T11:52:07.606Z,82.26
2019-05-01T11:53:07.575Z,82.12
2019-05-01T11:54:07.591Z,83.24
2019-05-01T11:55:07.591Z,83.38
2019-05-01T11:56:07.544Z,84.00
2019-05-01T11:57:07.557Z,84.61
2019-05-01T11:58:07.523Z,84.61
2019-05-01T11:59:07.511Z,82.42
2019-05-01T12:00:07.501Z,83.85
2019-05-01T12:01:07.497Z,84.16
2019-05-01T12:02:07.499Z,83.04
2019-05-01T12:03:07.471Z,83.04
2019-05-01T12:04:07.466Z,82.93
2019-05-01T12:05:07.547Z,82.97
2019-05-01T12:06:07.450Z,83.07
2019-05-01T12:07:07.448Z,83.69
2019-05-01T12:08:07.417Z,83.79
2019-05-01T12:09:07.406Z,82.67
2019-05-01T12:10:07.400Z,81.91
2019-05-01T12:11:07.388Z,83.65
2019-05-01T12:12:07.396Z,84.67
2019-05-01T12:13:07.365Z,84.36
2019-05-01T12:14:07.352Z,81.10
2019-05-01T12:15:07.348Z,82.53
2019-05-01T12:16:07.336Z,82.79
2019-05-01T12:17:07.341Z,81.87
2019-05-01T12:18:07.311Z,82.28
2019-05-01T12:19:07.313Z,82.79
2019-05-01T12:20:07.306Z,82.18
2019-05-01T12:21:07.321Z,82.89
2019-05-01T12:22:07.270Z,81.87
2019-05-01T12:23:07.293Z,81.57
2019-05-01T12:24:07.261Z,82.39
2019-05-01T12:25:07.877Z,81.98
2019-05-01T12:26:07.231Z,81.87
2019-05-01T12:27:07.224Z,81.46
2019-05-01T12:28:07.222Z,80.44
2019-05-01T12:29:07.192Z,81.02
2019-05-01T12:30:07.192Z,79.73
2019-05-01T12:31:07.171Z,80.85
2019-05-01T12:32:07.162Z,82.08
2019-05-01T12:33:07.171Z,81.87
2019-05-01T12:34:07.146Z,78.09
2019-05-01T12:35:07.129Z,81.53
2019-05-01T12:36:07.121Z,81.77
2019-05-01T12:37:07.114Z,80.20
2019-05-01T12:38:07.120Z,81.23
2019-05-01T12:39:07.174Z,81.12
2019-05-01T12:40:07.080Z,81.43
2019-05-01T12:41:07.078Z,81.43
2019-05-01T12:42:07.080Z,81.39
2019-05-01T12:43:07.066Z,81.39
2019-05-01T12:44:07.035Z,81.12
2019-05-01T12:45:07.031Z,79.75
2019-05-01T12:46:07.014Z,80.88
2019-05-01T12:47:07.004Z,81.73
2019-05-01T12:48:07.098Z,80.51
2019-05-01T12:49:07.882Z,80.98
2019-05-01T12:50:06.972Z,80.91
2019-05-01T12:51:06.967Z,80.61
2019-05-01T12:52:10.639Z,80.88
2019-05-01T12:53:06.999Z,79.39
2019-05-01T12:54:06.928Z,79.14
2019-05-01T12:55:06.924Z,80.07
2019-05-01T12:56:06.912Z,76.59
2019-05-01T12:57:06.904Z,79.96
2019-05-01T12:58:06.978Z,81.49
2019-05-01T12:59:06.943Z,78.12
2019-05-01T13:00:08.966Z,80.02
2019-05-01T13:01:07.863Z,79.62
2019-05-01T13:02:06.845Z,80.43
2019-05-01T13:03:06.843Z,80.13
2019-05-01T13:04:06.845Z,76.35
2019-05-01T13:05:06.815Z,79.52
2019-05-01T13:06:06.808Z,79.52
2019-05-01T13:07:06.795Z,79.25